Time;durP1;ratioP1;P1;durP2;ratioP2;P2;SDS_P1;SDS_P2;PMS_P1;PMS_P2;Temp;Humidity;BMP_temperature;BMP_pressure;BME280_temperature;BME280_humidity;BME280_pressure;Samples;Min_cycle;Max_cycle;Signal;HPM_P1;HPM_P2
2021/08/14 00:01:47;;;;;;;11.52;5.43;;;17.80;99.90;;;;;;6700211;88;20190;-78
2021/08/14 00:11:48;;;;;;;9.38;5.60;;;17.70;99.90;;;;;;6702595;88;21045;-77
2021/08/14 00:21:49;;;;;;;10.32;5.22;;;17.50;99.90;;;;;;6712076;88;20215;-78
2021/08/14 00:31:49;;;;;;;8.38;5.12;;;17.40;99.90;;;;;;6708800;88;20252;-78
2021/08/14 00:41:51;;;;;;;12.13;5.22;;;17.20;99.90;;;;;;6713475;88;20221;-76
2021/08/14 00:51:51;;;;;;;7.57;4.70;;;17.10;99.90;;;;;;6697555;88;20318;-77
2021/08/14 01:01:53;;;;;;;11.25;4.80;;;17.00;99.90;;;;;;6692783;88;20739;-77
2021/08/14 01:11:55;;;;;;;11.73;5.07;;;17.40;99.90;;;;;;6702439;88;20255;-78
2021/08/14 01:21:58;;;;;;;9.63;4.82;;;17.10;99.90;;;;;;6695146;88;20209;-77
2021/08/14 01:31:59;;;;;;;12.70;5.45;;;17.00;99.90;;;;;;6703710;88;20183;-77
2021/08/14 01:42:02;;;;;;;9.05;5.15;;;16.80;99.90;;;;;;6703898;88;20261;-78
2021/08/14 01:52:14;;;;;;;8.15;5.03;;;16.90;99.90;;;;;;6701948;88;20332;-77
2021/08/14 02:02:14;;;;;;;9.68;4.62;;;16.60;99.90;;;;;;6705833;88;20187;-77
2021/08/14 02:12:15;;;;;;;10.65;4.93;;;16.50;99.90;;;;;;6696048;88;20254;-77
2021/08/14 02:22:15;;;;;;;10.00;5.35;;;16.30;99.90;;;;;;6698046;88;20219;-77
2021/08/14 02:32:16;;;;;;;8.73;4.53;;;16.10;99.90;;;;;;6703059;88;20198;-78
2021/08/14 02:42:16;;;;;;;8.65;4.18;;;16.20;99.90;;;;;;6698605;88;20214;-78
2021/08/14 02:52:17;;;;;;;7.90;4.57;;;16.20;99.90;;;;;;6698038;88;20204;-78
2021/08/14 03:02:17;;;;;;;8.88;4.32;;;16.00;99.90;;;;;;6692212;88;20202;-77
2021/08/14 03:12:20;;;;;;;8.95;4.68;;;16.20;99.90;;;;;;6696587;88;20662;-77
2021/08/14 03:22:20;;;;;;;8.88;4.55;;;16.30;99.90;;;;;;6704986;88;20288;-77
2021/08/14 03:32:21;;;;;;;11.57;4.65;;;16.50;99.90;;;;;;6706808;88;20224;-77
2021/08/14 03:42:21;;;;;;;8.20;4.25;;;16.10;99.90;;;;;;6695630;88;20611;-77
2021/08/14 03:52:23;;;;;;;8.20;4.55;;;15.90;99.90;;;;;;6700768;88;20191;-77
2021/08/14 04:02:24;;;;;;;10.55;5.03;;;16.10;99.90;;;;;;6696490;88;20182;-78
2021/08/14 04:12:25;;;;;;;9.77;4.95;;;16.00;99.90;;;;;;6704778;88;20346;-79
2021/08/14 04:22:25;;;;;;;12.25;4.80;;;16.10;99.90;;;;;;6694781;88;20620;-78
2021/08/14 04:32:30;;;;;;;8.07;4.57;;;16.10;99.90;;;;;;6700955;88;20317;-79
2021/08/14 04:42:31;;;;;;;9.83;4.63;;;16.00;99.90;;;;;;6693869;88;20248;-78
2021/08/14 04:52:31;;;;;;;10.93;4.78;;;16.00;99.90;;;;;;6711386;88;20206;-77
2021/08/14 05:02:32;;;;;;;8.50;4.70;;;16.00;99.90;;;;;;6707510;88;20284;-77
2021/08/14 05:12:32;;;;;;;8.20;5.07;;;16.20;99.90;;;;;;6704587;88;20293;-77
2021/08/14 05:22:33;;;;;;;9.90;4.50;;;16.30;99.90;;;;;;6706245;88;20953;-77
2021/08/14 05:32:33;;;;;;;8.98;4.55;;;16.80;99.90;;;;;;6711810;88;20174;-77
2021/08/14 05:42:34;;;;;;;8.45;4.50;;;17.00;99.90;;;;;;6697902;88;20610;-77
2021/08/14 05:52:35;;;;;;;13.68;4.95;;;17.20;99.90;;;;;;6718334;88;20183;-76
2021/08/14 06:02:35;;;;;;;10.23;4.95;;;17.40;99.90;;;;;;6700943;88;20226;-76
2021/08/14 06:12:36;;;;;;;9.68;5.03;;;17.90;99.90;;;;;;6700511;88;20194;-76
2021/08/14 06:22:37;;;;;;;11.02;4.80;;;18.30;99.90;;;;;;6700234;88;20324;-76
2021/08/14 06:32:38;;;;;;;10.45;4.87;;;18.50;99.90;;;;;;6700152;88;20182;-76
2021/08/14 06:42:39;;;;;;;7.87;4.47;;;18.90;99.90;;;;;;6700270;88;20185;-76
2021/08/14 06:52:39;;;;;;;9.50;4.72;;;19.50;99.90;;;;;;6699829;88;20241;-76
2021/08/14 07:02:41;;;;;;;8.95;4.25;;;20.20;99.90;;;;;;6700423;88;20228;-76
2021/08/14 07:12:44;;;;;;;9.98;4.68;;;20.50;99.90;;;;;;6700039;88;20200;-77
2021/08/14 07:22:44;;;;;;;7.72;4.35;;;20.60;99.90;;;;;;6692746;88;20300;-76
2021/08/14 07:32:45;;;;;;;9.82;5.07;;;21.40;99.90;;;;;;6694489;88;20700;-75
2021/08/14 07:42:46;;;;;;;8.07;4.68;;;22.20;99.90;;;;;;6692734;88;20763;-75
2021/08/14 07:52:47;;;;;;;8.00;4.68;;;22.40;99.90;;;;;;6692240;88;20186;-76
2021/08/14 08:02:48;;;;;;;8.50;4.40;;;23.20;99.90;;;;;;6690080;88;20190;-75
2021/08/14 08:12:49;;;;;;;10.80;4.87;;;24.10;99.90;;;;;;6693619;88;20295;-75
2021/08/14 08:22:49;;;;;;;11.73;4.93;;;25.50;99.90;;;;;;6684518;88;20783;-75
2021/08/14 08:32:50;;;;;;;14.20;4.60;;;25.60;99.90;;;;;;6685624;88;20244;-78
2021/08/14 08:42:50;;;;;;;12.00;4.78;;;26.60;99.90;;;;;;6681422;88;20299;-76
2021/08/14 08:52:51;;;;;;;8.98;4.62;;;26.60;99.90;;;;;;6697050;88;20228;-77
2021/08/14 09:03:05;;;;;;;7.72;4.40;;;27.00;99.90;;;;;;6695642;88;20212;-77
2021/08/14 09:13:11;;;;;;;9.05;4.45;;;28.30;99.90;;;;;;6696016;88;20182;-78
2021/08/14 09:23:12;;;;;;;12.57;4.05;;;28.70;99.90;;;;;;6704756;88;20192;-78
2021/08/14 09:33:14;;;;;;;8.93;3.53;;;29.50;97.60;;;;;;6700043;88;20180;-78
2021/08/14 09:43:32;;;;;;;8.15;3.60;;;30.30;95.20;;;;;;6694742;88;20186;-77
2021/08/14 09:53:33;;;;;;;6.93;3.67;;;30.60;94.40;;;;;;6708352;88;20236;-77
2021/08/14 10:03:35;;;;;;;8.55;3.72;;;31.10;92.70;;;;;;6707137;88;20212;-77
2021/08/14 10:13:38;;;;;;;7.05;3.50;;;31.80;91.70;;;;;;6706740;88;20326;-75
2021/08/14 10:23:40;;;;;;;8.45;3.58;;;31.60;91.60;;;;;;6705695;88;20191;-77
2021/08/14 10:33:41;;;;;;;8.38;3.42;;;32.40;90.30;;;;;;6706210;88;20266;-76
2021/08/14 10:43:54;;;;;;;6.80;3.43;;;32.60;89.90;;;;;;6685318;88;20924;-75
2021/08/14 10:53:54;;;;;;;8.75;3.60;;;33.20;88.30;;;;;;6709416;88;20635;-76
2021/08/14 11:03:55;;;;;;;6.53;3.20;;;33.20;85.70;;;;;;6705096;88;20203;-75
2021/08/14 11:14:10;;;;;;;7.00;3.30;;;33.80;84.00;;;;;;6709372;88;20190;-77
2021/08/14 11:24:36;;;;;;;6.68;3.37;;;34.40;81.90;;;;;;6706397;88;20230;-76
2021/08/14 11:34:36;;;;;;;9.00;3.22;;;34.50;78.80;;;;;;6708620;88;20245;-78
2021/08/14 11:44:37;;;;;;;10.50;3.22;;;34.10;78.70;;;;;;6686526;88;20196;-75
2021/08/14 11:54:38;;;;;;;8.20;3.20;;;34.40;77.70;;;;;;6708803;88;20895;-76
2021/08/14 12:05:19;;;;;;;7.20;2.75;;;35.20;75.20;;;;;;6718980;77;20306;-78
2021/08/14 12:15:20;;;;;;;6.95;2.83;;;34.70;74.00;;;;;;6654548;89;20209;-78
2021/08/14 12:25:22;;;;;;;8.35;2.95;;;34.40;72.80;;;;;;6678051;88;20180;-81
2021/08/14 12:35:25;;;;;;;7.07;3.12;;;34.30;71.20;;;;;;6682201;88;20674;-81
2021/08/14 12:45:26;;;;;;;5.35;2.80;;;34.50;68.90;;;;;;6666023;89;20188;-82
2021/08/14 12:55:39;;;;;;;7.12;3.10;;;34.70;68.90;;;;;;6679457;88;20216;-81
2021/08/14 13:05:40;;;;;;;5.47;2.70;;;34.50;69.40;;;;;;6661823;89;20662;-81
2021/08/14 13:15:42;;;;;;;7.43;2.77;;;34.80;67.30;;;;;;6672757;88;20209;-81
2021/08/14 13:25:43;;;;;;;8.40;3.08;;;34.50;66.10;;;;;;6661789;89;20203;-80
2021/08/14 13:35:43;;;;;;;5.93;2.55;;;34.70;66.00;;;;;;6674295;88;20188;-80
2021/08/14 13:45:44;;;;;;;6.53;3.20;;;34.60;65.10;;;;;;6674899;88;20188;-80
2021/08/14 13:55:44;;;;;;;5.03;3.03;;;34.20;63.90;;;;;;6661613;89;20494;-81
2021/08/14 14:05:45;;;;;;;7.03;2.85;;;34.40;63.90;;;;;;6660737;89;20197;-79
2021/08/14 14:15:45;;;;;;;6.30;3.10;;;33.90;63.30;;;;;;6658642;89;20199;-79
2021/08/14 14:25:46;;;;;;;6.40;2.80;;;33.90;63.40;;;;;;6675094;88;20192;-80
2021/08/14 14:35:46;;;;;;;6.20;3.60;;;33.80;63.20;;;;;;6673621;88;20199;-82
2021/08/14 14:45:47;;;;;;;7.47;2.75;;;33.30;63.90;;;;;;6672469;88;20285;-80
2021/08/14 14:55:47;;;;;;;5.28;2.40;;;33.50;63.30;;;;;;6658206;89;20601;-80
2021/08/14 15:05:48;;;;;;;6.87;2.47;;;33.10;63.60;;;;;;6672610;88;20196;-80
2021/08/14 15:15:48;;;;;;;6.03;2.60;;;33.10;63.00;;;;;;6657863;89;21087;-80
2021/08/14 15:25:49;;;;;;;6.07;2.45;;;33.10;62.80;;;;;;6656436;89;20354;-80
2021/08/14 15:35:50;;;;;;;6.70;2.55;;;32.80;63.20;;;;;;6669937;88;20220;-81
2021/08/14 15:45:50;;;;;;;;;;;32.60;62.20;;;;;;6656730;89;20278;-81
2021/08/14 15:55:51;;;;;;;5.95;2.58;;;32.20;62.30;;;;;;6670031;88;20656;-80
2021/08/14 16:05:51;;;;;;;6.75;2.60;;;31.80;63.40;;;;;;6671068;88;20688;-80
2021/08/14 16:15:52;;;;;;;7.32;2.10;;;31.20;64.30;;;;;;6673211;88;20643;-79
2021/08/14 16:25:53;;;;;;;6.07;2.60;;;30.90;64.40;;;;;;6656481;89;20195;-83
2021/08/14 16:35:53;;;;;;;5.70;2.78;;;30.70;65.40;;;;;;6657233;89;20325;-81
2021/08/14 16:45:54;;;;;;;10.75;3.20;;;30.20;66.50;;;;;;6657670;89;20188;-80
2021/08/14 16:55:54;;;;;;;7.43;3.45;;;29.60;68.50;;;;;;6658441;89;20203;-81
2021/08/14 17:05:55;;;;;;;7.10;3.75;;;29.50;69.60;;;;;;6674417;88;20180;-81
2021/08/14 17:15:55;;;;;;;9.43;5.30;;;29.00;70.70;;;;;;6666245;89;20322;-82
2021/08/14 17:25:56;;;;;;;11.77;3.97;;;28.50;72.50;;;;;;6684447;88;20797;-81
2021/08/14 17:35:56;;;;;;;8.48;2.95;;;28.50;72.70;;;;;;6667222;89;20731;-77
2021/08/14 17:45:57;;;;;;;7.60;3.17;;;29.60;71.60;;;;;;6667536;88;20183;-79
2021/08/14 17:55:58;;;;;;;8.40;3.35;;;29.60;72.40;;;;;;6672188;88;20177;-80
2021/08/14 18:05:58;;;;;;;9.73;3.50;;;27.40;76.30;;;;;;6624822;78;20318;-77
2021/08/14 18:15:59;;;;;;;8.90;3.30;;;26.50;79.00;;;;;;6616893;89;20221;-77
2021/08/14 18:26:00;;;;;;;7.18;3.08;;;25.90;81.00;;;;;;6611799;89;20695;-76
2021/08/14 18:36:00;;;;;;;8.18;3.25;;;25.40;82.60;;;;;;6617435;88;20274;-77
2021/08/14 18:46:03;;;;;;;10.00;3.20;;;25.20;83.20;;;;;;6704472;88;20189;-76
2021/08/14 18:56:04;;;;;;;11.00;3.28;;;24.70;85.80;;;;;;6697500;88;20245;-76
2021/08/14 19:06:04;;;;;;;9.85;3.85;;;24.40;87.60;;;;;;6697092;88;20215;-78
2021/08/14 19:16:05;;;;;;;11.90;3.30;;;24.10;89.80;;;;;;6697387;88;20197;-76
2021/08/14 19:26:06;;;;;;;7.62;3.50;;;24.00;90.20;;;;;;6678855;88;20226;-77
2021/08/14 19:36:07;;;;;;;7.97;3.95;;;23.60;91.90;;;;;;6695973;88;20256;-78
2021/08/14 19:46:07;;;;;;;8.75;3.95;;;23.20;93.80;;;;;;6699634;88;20296;-77
2021/08/14 19:56:08;;;;;;;13.10;4.30;;;22.90;95.30;;;;;;6704957;88;20606;-79
2021/08/14 20:06:08;;;;;;;13.13;3.92;;;22.60;97.30;;;;;;6708956;88;20186;-80
2021/08/14 20:16:09;;;;;;;10.32;4.40;;;22.40;98.60;;;;;;6706133;88;20227;-80
2021/08/14 20:26:09;;;;;;;12.37;4.03;;;22.00;99.90;;;;;;6708719;88;20670;-80
2021/08/14 20:36:10;;;;;;;11.82;4.10;;;21.80;99.90;;;;;;6704118;88;20187;-79
2021/08/14 20:46:11;;;;;;;11.35;4.65;;;21.50;99.90;;;;;;6703465;88;20943;-79
2021/08/14 20:56:12;;;;;;;11.50;4.12;;;21.40;99.90;;;;;;6701573;88;20572;-78
2021/08/14 21:06:12;;;;;;;11.48;4.62;;;21.20;99.90;;;;;;6701042;88;20277;-78
2021/08/14 21:16:13;;;;;;;13.45;4.18;;;21.10;99.90;;;;;;6700749;88;20328;-78
2021/08/14 21:26:14;;;;;;;13.65;4.62;;;20.90;99.90;;;;;;6699672;88;20281;-78
2021/08/14 21:36:15;;;;;;;8.63;4.12;;;20.80;99.90;;;;;;6700958;88;20313;-78
2021/08/14 21:46:16;;;;;;;11.65;4.43;;;20.60;99.90;;;;;;6717926;88;20813;-78
2021/08/14 21:56:16;;;;;;;9.93;4.20;;;20.70;99.90;;;;;;6597884;89;20221;-77
2021/08/14 22:06:18;;;;;;;12.05;4.90;;;20.70;99.90;;;;;;6600235;89;20222;-77
2021/08/14 22:16:18;;;;;;;11.75;5.10;;;20.40;99.90;;;;;;6613869;89;20193;-79
2021/08/14 22:26:19;;;;;;;11.38;5.25;;;20.30;99.90;;;;;;6613966;89;20230;-77
2021/08/14 22:36:19;;;;;;;11.12;5.12;;;20.00;99.90;;;;;;6613987;89;20212;-77
2021/08/14 22:46:20;;;;;;;12.60;5.60;;;19.70;99.90;;;;;;6613347;89;20335;-77
2021/08/14 22:56:20;;;;;;;15.15;5.82;;;19.80;99.90;;;;;;6612895;89;20192;-77
2021/08/14 23:06:21;;;;;;;10.63;5.35;;;19.70;99.90;;;;;;6613172;89;20226;-79
2021/08/14 23:16:22;;;;;;;11.07;4.78;;;19.50;99.90;;;;;;6613043;89;20331;-78
2021/08/14 23:26:22;;;;;;;11.40;5.20;;;19.20;99.90;;;;;;6612562;89;20211;-78
2021/08/14 23:36:23;;;;;;;11.00;4.72;;;18.80;99.90;;;;;;6612984;89;20209;-78
2021/08/14 23:46:23;;;;;;;11.25;5.00;;;18.40;99.90;;;;;;6613114;89;20712;-78
2021/08/14 23:56:24;;;;;;;12.88;4.97;;;18.10;99.90;;;;;;6613237;89;20277;-78
